Silex, Missouri
Current Conditions -  °F | °C
As of 1:54 AM on Sunday 26 Oct 2014 (Local Time) from KSET Reporting Station
Clear Clear  
Wind Chill: 60°   Ceiling: Unl
Heat Index: 60°   Visibility: 10mi
Dew Point: 44°   Wind: 3mph
Humidity: 55%   Direction: 70°ENE
Pressure: 30.02"   Gusts: NA
Location:  39.12°N, 91.05°W
Report Text: KSET 260654Z AUTO 07003KT 10SM CLR 16/07 A3002 RMK AO2 SLP160 T01560067
Loading
Personal Weather Stations






























Interactive Weather Map
Tropical Storm Tracking
New forecast layout! Learn more

10-Day Weather Forecast

Advertisements
Track Severe Weather on mobile